createdAt,value
2022-11-15T00:00:23.747Z,31.35
2022-11-15T00:03:09.030Z,34.25
2022-11-15T00:05:54.510Z,33.25
2022-11-15T00:08:39.661Z,35.75
2022-11-15T00:11:25.135Z,35.95
2022-11-15T00:14:10.552Z,33.88
2022-11-15T00:16:55.937Z,33.38
2022-11-15T00:19:41.242Z,34.45
2022-11-15T00:22:26.467Z,34.22
2022-11-15T00:25:11.819Z,35.53
2022-11-15T00:27:58.112Z,36.03
2022-11-15T00:30:43.713Z,35.75
2022-11-15T00:33:29.499Z,33.80
2022-11-15T00:36:15.184Z,36.90
2022-11-15T00:39:00.488Z,35.90
2022-11-15T00:41:45.738Z,37.30
2022-11-15T00:44:31.154Z,35.45
2022-11-15T00:47:16.250Z,35.30
2022-11-15T00:50:01.676Z,36.85
2022-11-15T00:52:47.029Z,37.05
2022-11-15T00:55:32.271Z,36.42
2022-11-15T00:58:17.665Z,33.22
2022-11-15T01:01:13.765Z,35.78
2022-11-15T01:04:01.425Z,35.25
2022-11-15T01:06:46.989Z,38.80
2022-11-15T01:09:32.288Z,35.65
2022-11-15T01:12:17.570Z,37.90
2022-11-15T01:15:03.037Z,35.75
2022-11-15T01:17:48.535Z,37.28
2022-11-15T01:20:33.831Z,37.15
2022-11-15T01:23:19.353Z,38.67
2022-11-15T01:26:05.907Z,35.63
2022-11-15T01:28:51.975Z,38.22
2022-11-15T01:31:37.361Z,35.88
2022-11-15T01:34:22.743Z,34.08
2022-11-15T01:37:08.052Z,37.08
2022-11-15T01:39:53.378Z,40.25
2022-11-15T01:42:38.865Z,37.42
2022-11-15T01:45:24.395Z,37.80
2022-11-15T01:48:11.308Z,35.90
2022-11-15T01:50:56.854Z,38.40
2022-11-15T01:53:43.919Z,41.30
2022-11-15T01:56:31.675Z,39.10
2022-11-15T01:59:16.969Z,37.17
2022-11-15T02:02:02.399Z,38.88
2022-11-15T02:04:48.411Z,39.30
2022-11-15T02:07:35.632Z,40.33
2022-11-15T02:10:23.939Z,38.60
2022-11-15T02:13:09.468Z,39.60
2022-11-15T02:16:16.647Z,37.53
2022-11-15T02:19:32.688Z,36.63
2022-11-15T02:22:27.272Z,42.50
2022-11-15T02:25:15.805Z,40.83
2022-11-15T02:28:26.109Z,37.30
2022-11-15T02:31:20.868Z,37.13
2022-11-15T02:34:43.939Z,39.17
2022-11-15T02:37:38.116Z,38.53
2022-11-15T02:40:40.300Z,36.00
2022-11-15T02:44:01.174Z,35.88
2022-11-15T02:47:11.419Z,36.92
2022-11-15T02:50:00.401Z,38.15
2022-11-15T02:52:50.156Z,36.95
2022-11-15T02:55:40.390Z,36.88
2022-11-15T02:58:38.089Z,37.00
2022-11-15T03:01:27.614Z,37.88
2022-11-15T03:04:48.557Z,36.30
2022-11-15T03:07:45.655Z,36.03
2022-11-15T03:11:00.767Z,43.17
2022-11-15T03:14:18.767Z,36.53
2022-11-15T03:17:12.344Z,36.58
2022-11-15T03:19:59.917Z,36.40
2022-11-15T03:22:47.765Z,37.40
2022-11-15T03:25:34.452Z,37.33
2022-11-15T03:28:24.863Z,38.80
2022-11-15T03:31:50.963Z,35.28
2022-11-15T03:35:05.351Z,38.90
2022-11-15T03:38:14.102Z,39.20
2022-11-15T03:41:05.664Z,37.95
2022-11-15T03:43:58.014Z,37.08
2022-11-15T03:47:04.063Z,40.08
2022-11-15T03:49:54.396Z,35.15
2022-11-15T03:52:41.045Z,37.58
2022-11-15T03:55:26.471Z,35.53
2022-11-15T03:58:11.940Z,34.90
2022-11-15T04:00:57.172Z,34.42
2022-11-15T04:03:42.609Z,37.10
2022-11-15T04:06:27.937Z,34.90
2022-11-15T04:09:13.316Z,39.20
2022-11-15T04:11:58.697Z,37.20
2022-11-15T04:15:03.998Z,38.63
2022-11-15T04:17:57.572Z,36.80
2022-11-15T04:21:01.899Z,40.08
2022-11-15T04:24:05.966Z,37.53
2022-11-15T04:26:51.993Z,34.75
2022-11-15T04:29:37.196Z,38.83
2022-11-15T04:32:22.762Z,36.55
2022-11-15T04:35:08.516Z,36.00
2022-11-15T04:37:54.109Z,36.28
2022-11-15T04:40:39.499Z,37.33
2022-11-15T04:43:24.487Z,35.88
2022-11-15T04:46:09.915Z,37.55
2022-11-15T04:48:58.872Z,36.13
2022-11-15T04:51:45.540Z,36.58
2022-11-15T04:54:32.623Z,37.03
2022-11-15T04:57:18.124Z,43.47
2022-11-15T05:00:06.149Z,47.78
2022-11-15T05:03:10.698Z,43.08
2022-11-15T05:05:56.552Z,38.75
2022-11-15T05:08:41.850Z,39.17
2022-11-15T05:11:28.515Z,37.35
2022-11-15T05:14:14.168Z,36.88
2022-11-15T05:16:59.529Z,38.58
2022-11-15T05:19:45.770Z,38.85
2022-11-15T05:22:31.334Z,38.67
2022-11-15T05:25:16.810Z,34.90
2022-11-15T05:28:02.298Z,34.17
2022-11-15T05:30:47.540Z,38.33
2022-11-15T05:33:34.092Z,37.30
2022-11-15T05:36:36.122Z,36.05
2022-11-15T05:39:21.752Z,39.25
2022-11-15T05:42:14.668Z,35.35
2022-11-15T05:45:01.085Z,36.70
2022-11-15T05:47:46.848Z,36.33
2022-11-15T05:50:32.336Z,34.75
2022-11-15T05:53:21.041Z,34.13
2022-11-15T05:56:07.789Z,38.10
2022-11-15T05:58:59.257Z,35.70
2022-11-15T06:01:45.050Z,34.15
2022-11-15T06:04:30.332Z,33.75
2022-11-15T06:07:15.705Z,41.22
2022-11-15T06:10:01.074Z,36.30
2022-11-15T06:12:46.196Z,35.58
2022-11-15T06:15:33.339Z,34.20
2022-11-15T06:18:19.096Z,38.22
2022-11-15T06:21:05.737Z,37.40
2022-11-15T06:23:51.222Z,35.38
2022-11-15T06:26:36.554Z,37.15
2022-11-15T06:29:21.973Z,36.17
2022-11-15T06:32:07.963Z,36.75
2022-11-15T06:34:53.632Z,36.38
2022-11-15T06:37:38.895Z,36.63
2022-11-15T06:40:24.252Z,34.90
2022-11-15T06:43:09.984Z,34.00
2022-11-15T06:45:55.389Z,35.55
2022-11-15T06:48:40.856Z,36.40
2022-11-15T06:51:26.395Z,33.83
2022-11-15T06:54:11.722Z,34.25
2022-11-15T06:56:57.027Z,34.65
2022-11-15T06:59:42.593Z,33.42
2022-11-15T07:02:28.054Z,32.75
2022-11-15T07:05:14.551Z,37.78
2022-11-15T07:08:00.491Z,35.10
2022-11-15T07:10:45.925Z,33.53
2022-11-15T07:13:34.882Z,34.47
2022-11-15T07:16:20.436Z,32.90
2022-11-15T07:19:05.703Z,35.03
2022-11-15T07:21:51.282Z,36.42
2022-11-15T07:24:36.628Z,39.38
2022-11-15T07:27:22.078Z,34.97
2022-11-15T07:30:08.335Z,45.03
2022-11-15T07:32:58.276Z,41.75
2022-11-15T07:35:50.740Z,38.30
2022-11-15T07:38:42.453Z,41.50
2022-11-15T07:41:28.373Z,41.28
2022-11-15T07:44:15.312Z,38.83
2022-11-15T07:47:00.885Z,42.08
2022-11-15T07:49:47.567Z,39.30
2022-11-15T07:52:33.397Z,40.38
2022-11-15T07:55:18.976Z,39.08
2022-11-15T07:58:09.406Z,38.53
2022-11-15T08:00:56.093Z,34.17
2022-11-15T08:03:41.370Z,37.17
2022-11-15T08:06:26.791Z,41.50
2022-11-15T08:09:12.193Z,43.67
2022-11-15T08:11:57.437Z,43.10
2022-11-15T08:14:43.644Z,43.25
2022-11-15T08:17:33.128Z,40.15
2022-11-15T08:20:18.587Z,43.20
2022-11-15T08:23:05.412Z,41.22
2022-11-15T08:25:50.527Z,44.38
2022-11-15T08:28:35.995Z,40.83
2022-11-15T08:31:21.456Z,41.60
2022-11-15T08:34:07.880Z,43.50
2022-11-15T08:36:53.247Z,41.28
2022-11-15T08:39:39.078Z,39.40
2022-11-15T08:42:24.465Z,38.80
2022-11-15T08:45:10.480Z,40.00
2022-11-15T08:47:56.115Z,40.22
2022-11-15T08:50:41.793Z,36.88
2022-11-15T08:53:27.134Z,38.75
2022-11-15T08:56:14.311Z,36.60
2022-11-15T08:59:00.000Z,36.92
2022-11-15T09:01:45.355Z,32.25
2022-11-15T09:04:30.761Z,31.40
2022-11-15T09:07:16.707Z,33.05
2022-11-15T09:10:01.984Z,29.80
2022-11-15T09:12:49.589Z,29.13
2022-11-15T09:15:35.257Z,26.85
2022-11-15T09:18:22.404Z,28.67
2022-11-15T09:21:08.159Z,25.90
2022-11-15T09:23:53.761Z,25.92
2022-11-15T09:26:39.418Z,24.55
2022-11-15T09:29:24.661Z,22.02
2022-11-15T09:32:10.098Z,23.70
2022-11-15T09:34:55.743Z,24.65
2022-11-15T09:37:41.192Z,24.65
2022-11-15T09:40:27.414Z,25.60
2022-11-15T09:43:37.815Z,22.13
2022-11-15T09:46:49.252Z,20.88
2022-11-15T09:49:34.896Z,24.55
2022-11-15T09:52:24.649Z,22.85
2022-11-15T09:54:54.906Z,22.65
2022-11-15T09:57:37.914Z,25.15
2022-11-15T10:03:16.325Z,23.30
2022-11-15T10:05:55.658Z,22.17
2022-11-15T10:09:02.168Z,20.63
2022-11-15T10:11:37.746Z,22.25
2022-11-15T10:14:25.433Z,22.75
2022-11-15T10:17:04.411Z,22.05
2022-11-15T10:19:33.987Z,21.52
2022-11-15T10:22:39.447Z,19.30
2022-11-15T10:25:24.076Z,19.63
2022-11-15T10:27:59.416Z,20.13
2022-11-15T10:30:37.902Z,16.98
2022-11-15T10:33:36.617Z,20.08
2022-11-15T10:36:09.534Z,18.95
2022-11-15T10:38:51.759Z,15.45
2022-11-15T10:41:27.608Z,18.20
2022-11-15T10:44:23.813Z,19.77
2022-11-15T10:46:56.599Z,17.83
2022-11-15T10:49:23.200Z,16.88
2022-11-15T10:51:54.676Z,18.40
2022-11-15T10:54:28.303Z,18.80
2022-11-15T10:56:57.483Z,20.58
2022-11-15T10:59:39.030Z,16.63
2022-11-15T11:02:26.213Z,15.80
2022-11-15T11:04:53.416Z,17.88
2022-11-15T11:07:26.434Z,15.73
2022-11-15T11:10:22.808Z,14.35
2022-11-15T11:12:53.120Z,14.52
2022-11-15T11:15:20.272Z,17.05
2022-11-15T11:18:03.142Z,16.48
2022-11-15T11:20:54.456Z,12.48
2022-11-15T11:23:21.242Z,15.13
2022-11-15T11:26:09.032Z,17.10
2022-11-15T11:28:56.529Z,14.20
2022-11-15T11:31:35.540Z,13.25
2022-11-15T11:34:14.903Z,14.15
2022-11-15T11:36:55.019Z,15.27
2022-11-15T11:39:40.702Z,15.82
2022-11-15T11:42:22.666Z,15.48
2022-11-15T11:45:11.486Z,13.48
2022-11-15T11:47:42.157Z,13.75
2022-11-15T11:50:16.351Z,13.52
2022-11-15T11:53:04.397Z,13.25
2022-11-15T11:55:39.873Z,15.65
2022-11-15T11:58:20.924Z,15.15
2022-11-15T12:00:53.174Z,18.02
2022-11-15T12:03:38.071Z,16.85
2022-11-15T12:06:22.604Z,15.23
2022-11-15T12:09:01.570Z,16.30
2022-11-15T12:11:52.715Z,17.20
2022-11-15T12:14:28.768Z,14.65
2022-11-15T12:16:55.743Z,15.38
2022-11-15T12:19:22.599Z,16.45
2022-11-15T12:22:21.854Z,14.98
2022-11-15T12:25:00.908Z,13.10
2022-11-15T12:27:34.671Z,14.98
2022-11-15T12:30:12.354Z,16.40
2022-11-15T12:32:40.289Z,14.32
2022-11-15T12:35:23.105Z,13.60
2022-11-15T12:37:59.144Z,17.77
2022-11-15T12:40:34.400Z,13.48
2022-11-15T12:43:16.936Z,13.98
2022-11-15T12:45:45.556Z,14.73
2022-11-15T12:48:18.380Z,13.80
2022-11-15T12:50:59.618Z,13.13
2022-11-15T12:53:26.376Z,12.55
2022-11-15T12:56:10.355Z,11.90
2022-11-15T12:58:59.360Z,12.63
2022-11-15T13:01:32.312Z,13.75
2022-11-15T13:04:20.916Z,11.35
2022-11-15T13:06:53.319Z,13.65
2022-11-15T13:09:29.436Z,15.52
2022-11-15T13:11:57.596Z,12.35
2022-11-15T13:14:46.919Z,12.13
2022-11-15T13:17:22.827Z,10.18
2022-11-15T13:20:07.988Z,13.18
2022-11-15T13:22:52.524Z,11.40
2022-11-15T13:25:25.253Z,13.00
2022-11-15T13:27:52.426Z,11.77
2022-11-15T13:30:27.426Z,9.70
2022-11-15T13:32:54.700Z,12.02
2022-11-15T13:35:23.671Z,11.60
2022-11-15T13:37:51.246Z,10.35
2022-11-15T13:40:33.894Z,12.35
2022-11-15T13:43:00.895Z,9.70
2022-11-15T13:45:28.161Z,13.52
2022-11-15T13:47:57.122Z,12.57
2022-11-15T13:50:31.068Z,11.57
2022-11-15T13:53:00.130Z,10.90
2022-11-15T13:55:27.246Z,11.90
2022-11-15T13:58:06.935Z,14.35
2022-11-15T14:00:43.274Z,12.10
2022-11-15T14:03:19.421Z,12.73
2022-11-15T14:06:13.704Z,19.67
2022-11-15T14:08:41.747Z,15.55
2022-11-15T14:11:20.335Z,13.98
2022-11-15T14:14:06.090Z,17.83
2022-11-15T14:16:47.565Z,14.85
2022-11-15T14:19:26.352Z,14.90
2022-11-15T14:22:09.383Z,13.05
2022-11-15T14:24:36.836Z,11.73
2022-11-15T14:27:26.462Z,10.20
2022-11-15T14:29:54.182Z,11.13
2022-11-15T14:32:29.314Z,12.02
2022-11-15T14:34:58.946Z,15.15
2022-11-15T14:37:37.944Z,11.82
2022-11-15T14:40:06.925Z,14.05
2022-11-15T14:42:35.880Z,12.45
2022-11-15T14:45:02.551Z,10.60
2022-11-15T14:47:29.254Z,12.68
2022-11-15T14:49:55.939Z,10.65
2022-11-15T14:52:36.744Z,11.57
2022-11-15T14:55:10.370Z,10.93
2022-11-15T14:57:37.104Z,11.50
2022-11-15T15:00:05.247Z,13.70
2022-11-15T15:02:42.464Z,13.43
2022-11-15T15:05:32.499Z,12.60
2022-11-15T15:07:59.553Z,14.73
2022-11-15T15:10:44.346Z,16.00
2022-11-15T15:13:23.887Z,15.98
2022-11-15T15:15:51.721Z,18.00
2022-11-15T15:18:20.758Z,13.82
2022-11-15T15:20:53.749Z,13.38
2022-11-15T15:23:21.176Z,12.05
2022-11-15T15:25:50.258Z,12.77
2022-11-15T15:28:17.365Z,16.92
2022-11-15T15:30:44.234Z,14.82
2022-11-15T15:33:11.137Z,15.60
2022-11-15T15:35:38.059Z,12.73
2022-11-15T15:38:05.915Z,15.05
2022-11-15T15:40:34.384Z,13.75
2022-11-15T15:43:01.545Z,15.25
2022-11-15T15:45:28.970Z,17.15
2022-11-15T15:47:55.918Z,15.63
2022-11-15T15:50:31.341Z,17.75
2022-11-15T15:53:00.069Z,14.63
2022-11-15T15:55:27.518Z,16.88
2022-11-15T15:57:54.800Z,16.52
2022-11-15T16:00:24.146Z,18.05
2022-11-15T16:02:51.594Z,16.80
2022-11-15T16:05:18.933Z,16.70
2022-11-15T16:07:46.041Z,19.92
2022-11-15T16:10:23.343Z,15.98
2022-11-15T16:12:50.206Z,17.63
2022-11-15T16:15:17.596Z,17.27
2022-11-15T16:18:14.186Z,19.40
2022-11-15T16:20:43.433Z,17.70
2022-11-15T16:23:12.113Z,19.60
2022-11-15T16:25:42.582Z,16.27
2022-11-15T16:28:17.365Z,20.85
2022-11-15T16:30:44.041Z,20.27
2022-11-15T16:33:10.877Z,18.67
2022-11-15T16:35:37.561Z,15.85
2022-11-15T16:38:04.237Z,18.02
2022-11-15T16:40:33.343Z,18.92
2022-11-15T16:43:03.000Z,18.60
2022-11-15T16:45:30.232Z,22.20
2022-11-15T16:47:57.480Z,21.20
2022-11-15T16:50:26.539Z,20.95
2022-11-15T16:52:54.718Z,18.33
2022-11-15T16:55:22.860Z,17.80
2022-11-15T16:57:49.833Z,20.80
2022-11-15T17:00:17.814Z,23.40
2022-11-15T17:02:49.034Z,19.80
2022-11-15T17:05:20.216Z,20.33
2022-11-15T17:07:54.331Z,22.15
2022-11-15T17:10:26.304Z,19.95
2022-11-15T17:12:53.437Z,19.13
2022-11-15T17:15:20.226Z,20.15
2022-11-15T17:17:53.040Z,19.83
2022-11-15T17:20:24.882Z,19.48
2022-11-15T17:22:52.842Z,25.27
2022-11-15T17:25:19.878Z,19.73
2022-11-15T17:27:46.808Z,22.65
2022-11-15T17:30:15.596Z,22.30
2022-11-15T17:32:43.216Z,20.52
2022-11-15T17:35:15.624Z,22.10
2022-11-15T17:37:43.427Z,21.30
2022-11-15T17:40:10.963Z,19.63
2022-11-15T17:42:37.747Z,23.08
2022-11-15T17:45:09.870Z,22.58
2022-11-15T17:47:37.389Z,21.60
2022-11-15T17:50:04.601Z,23.35
2022-11-15T17:52:31.415Z,23.48
2022-11-15T17:54:58.321Z,23.48
2022-11-15T17:57:25.267Z,21.25
2022-11-15T17:59:52.198Z,23.38
2022-11-15T18:02:19.620Z,26.85
2022-11-15T18:04:46.628Z,24.83
2022-11-15T18:07:14.374Z,23.52
2022-11-15T18:09:44.300Z,25.42
2022-11-15T18:12:12.396Z,28.05
2022-11-15T18:14:39.647Z,25.27
2022-11-15T18:17:06.689Z,28.67
2022-11-15T18:19:34.869Z,28.67
2022-11-15T18:22:04.440Z,28.05
2022-11-15T18:24:35.026Z,30.25
2022-11-15T18:27:03.756Z,27.10
2022-11-15T18:29:31.090Z,30.58
2022-11-15T18:31:59.046Z,29.90
2022-11-15T18:34:31.900Z,29.58
2022-11-15T18:36:59.148Z,33.22
2022-11-15T18:39:25.902Z,31.10
2022-11-15T18:41:52.933Z,30.30
2022-11-15T18:44:19.661Z,35.45
2022-11-15T18:46:46.880Z,39.42
2022-11-15T18:49:14.973Z,40.45
2022-11-15T18:51:42.226Z,41.03
2022-11-15T18:54:11.208Z,36.55
2022-11-15T18:56:41.864Z,39.28
2022-11-15T18:59:09.026Z,43.63
2022-11-15T19:01:38.375Z,41.85
2022-11-15T19:04:09.428Z,41.13
2022-11-15T19:06:44.216Z,42.17
2022-11-15T19:09:14.110Z,41.90
2022-11-15T19:11:41.971Z,40.38
2022-11-15T19:14:13.796Z,38.97
2022-11-15T19:16:44.667Z,39.30
2022-11-15T19:19:16.597Z,37.67
2022-11-15T19:21:43.835Z,39.03
2022-11-15T19:24:10.789Z,41.65
2022-11-15T19:26:38.404Z,41.42
2022-11-15T19:29:07.336Z,49.78
2022-11-15T19:31:34.758Z,51.97
2022-11-15T19:34:04.890Z,50.00
2022-11-15T19:36:33.656Z,46.85
2022-11-15T19:39:05.302Z,47.13
2022-11-15T19:41:32.387Z,48.35
2022-11-15T19:43:59.110Z,44.25
2022-11-15T19:46:27.038Z,42.80
2022-11-15T19:48:54.899Z,41.83
2022-11-15T19:51:24.796Z,45.33
2022-11-15T19:53:56.760Z,41.78
2022-11-15T19:56:24.225Z,43.00
2022-11-15T19:58:52.811Z,51.10
2022-11-15T20:01:22.511Z,42.53
2022-11-15T20:03:50.309Z,44.83
2022-11-15T20:06:19.058Z,41.88
2022-11-15T20:08:47.107Z,45.15
2022-11-15T20:11:14.696Z,49.38
2022-11-15T20:13:42.306Z,45.17
2022-11-15T20:16:10.817Z,46.08
2022-11-15T20:18:37.760Z,45.17
2022-11-15T20:21:06.491Z,45.90
2022-11-15T20:23:33.572Z,45.67
2022-11-15T20:26:00.469Z,49.67
2022-11-15T20:28:28.302Z,56.55
2022-11-15T20:30:57.605Z,66.88
2022-11-15T20:33:24.550Z,71.45
2022-11-15T20:35:51.610Z,58.75
2022-11-15T20:38:19.234Z,55.13
2022-11-15T20:40:46.643Z,52.53
2022-11-15T20:43:15.509Z,52.63
2022-11-15T20:45:50.538Z,53.03
2022-11-15T20:48:17.892Z,54.00
2022-11-15T20:50:46.059Z,49.72
2022-11-15T20:53:16.581Z,54.70
2022-11-15T20:55:45.333Z,53.88
2022-11-15T20:58:12.216Z,56.03
2022-11-15T21:00:39.275Z,55.13
2022-11-15T21:03:07.071Z,61.13
2022-11-15T21:05:44.471Z,58.63
2022-11-15T21:08:12.133Z,60.72
2022-11-15T21:10:59.522Z,63.08
2022-11-15T21:13:26.878Z,58.60
2022-11-15T21:15:57.932Z,62.30
2022-11-15T21:18:25.147Z,59.25
2022-11-15T21:20:52.330Z,61.80
2022-11-15T21:23:19.157Z,56.08
2022-11-15T21:25:52.157Z,60.15
2022-11-15T21:28:19.294Z,56.67
2022-11-15T21:31:00.326Z,54.60
2022-11-15T21:33:27.926Z,57.70
2022-11-15T21:35:55.720Z,58.72
2022-11-15T21:38:26.322Z,59.70
2022-11-15T21:40:53.542Z,52.58
2022-11-15T21:43:21.525Z,56.83
2022-11-15T21:46:00.277Z,54.88
2022-11-15T21:48:28.097Z,53.15
2022-11-15T21:50:56.654Z,58.17
2022-11-15T21:53:23.595Z,53.58
2022-11-15T21:55:50.353Z,55.80
2022-11-15T21:58:17.353Z,51.90
2022-11-15T22:01:03.154Z,47.60
2022-11-15T22:03:31.290Z,53.13
2022-11-15T22:05:58.002Z,56.08
2022-11-15T22:08:25.013Z,54.20
2022-11-15T22:10:53.106Z,53.75
2022-11-15T22:13:20.569Z,50.78
2022-11-15T22:15:47.586Z,49.35
2022-11-15T22:18:14.651Z,49.53
2022-11-15T22:20:45.348Z,49.88
2022-11-15T22:23:12.280Z,49.92
2022-11-15T22:25:39.126Z,48.03
2022-11-15T22:28:05.796Z,49.10
2022-11-15T22:30:32.563Z,48.78
2022-11-15T22:32:59.257Z,49.20
2022-11-15T22:35:26.038Z,54.30
2022-11-15T22:37:52.936Z,49.63
2022-11-15T22:40:19.845Z,49.17
2022-11-15T22:42:46.517Z,52.60
2022-11-15T22:45:13.601Z,52.40
2022-11-15T22:47:40.325Z,47.17
2022-11-15T22:50:07.728Z,47.00
2022-11-15T22:52:34.388Z,46.15
2022-11-15T22:55:01.217Z,47.88
2022-11-15T22:57:27.856Z,46.97
2022-11-15T22:59:54.564Z,49.95
2022-11-15T23:02:21.325Z,46.65
2022-11-15T23:04:48.189Z,49.08
2022-11-15T23:07:14.911Z,45.40
2022-11-15T23:09:41.648Z,46.58
2022-11-15T23:12:30.337Z,46.75
2022-11-15T23:14:57.026Z,45.22
2022-11-15T23:17:23.796Z,46.78
2022-11-15T23:19:50.449Z,48.97
2022-11-15T23:22:35.713Z,44.63
2022-11-15T23:25:02.402Z,47.97
2022-11-15T23:27:29.158Z,45.67
2022-11-15T23:30:14.578Z,42.33
2022-11-15T23:32:59.817Z,43.92
2022-11-15T23:35:27.926Z,46.28
2022-11-15T23:37:54.624Z,46.92
2022-11-15T23:40:21.397Z,43.88
2022-11-15T23:42:48.272Z,47.58
2022-11-15T23:45:14.960Z,48.03
2022-11-15T23:47:41.630Z,45.00
2022-11-15T23:50:08.552Z,45.83
2022-11-15T23:52:35.540Z,47.65
2022-11-15T23:55:02.327Z,46.10
2022-11-15T23:57:29.000Z,48.00
2022-11-15T23:59:55.720Z,48.17
